createdAt,value
2018-10-16T00:00:32.331Z,12.83
2018-10-16T00:03:07.040Z,11.67
2018-10-16T00:05:40.840Z,11.53
2018-10-16T00:08:14.674Z,12.60
2018-10-16T00:10:48.556Z,12.10
2018-10-16T00:13:22.395Z,12.63
2018-10-16T00:15:56.230Z,12.63
2018-10-16T00:18:30.121Z,13.13
2018-10-16T00:21:04.086Z,11.60
2018-10-16T00:23:37.985Z,12.03
2018-10-16T00:26:11.843Z,11.87
2018-10-16T00:28:45.693Z,12.10
2018-10-16T00:31:19.527Z,12.27
2018-10-16T00:33:53.468Z,11.47
2018-10-16T00:36:27.325Z,12.03
2018-10-16T00:39:01.159Z,11.40
2018-10-16T00:41:34.954Z,12.80
2018-10-16T00:44:10.661Z,13.37
2018-10-16T00:46:44.571Z,11.07
2018-10-16T00:49:18.655Z,12.10
2018-10-16T00:51:52.545Z,12.33
2018-10-16T00:54:26.470Z,11.43
2018-10-16T00:57:00.322Z,12.40
2018-10-16T00:59:34.459Z,11.57
2018-10-16T01:02:08.303Z,10.93
2018-10-16T01:04:42.216Z,10.37
2018-10-16T01:07:16.054Z,10.73
2018-10-16T01:09:49.902Z,10.63
2018-10-16T01:12:23.820Z,10.37
2018-10-16T01:14:57.729Z,11.00
2018-10-16T01:17:31.602Z,10.60
2018-10-16T01:20:06.136Z,11.50
2018-10-16T01:22:40.347Z,10.83
2018-10-16T01:25:14.567Z,13.87
2018-10-16T01:27:48.428Z,12.60
2018-10-16T01:30:22.273Z,13.20
2018-10-16T01:32:56.300Z,11.97
2018-10-16T01:35:30.349Z,10.83
2018-10-16T01:38:04.310Z,12.07
2018-10-16T01:40:38.409Z,11.23
2018-10-16T01:43:12.366Z,13.27
2018-10-16T01:45:46.532Z,11.93
2018-10-16T01:48:20.540Z,11.40
2018-10-16T01:50:54.567Z,11.73
2018-10-16T01:53:28.540Z,12.37
2018-10-16T01:56:02.564Z,11.17
2018-10-16T01:58:36.587Z,11.70
2018-10-16T02:01:10.570Z,12.10
2018-10-16T02:03:44.602Z,12.10
2018-10-16T02:06:18.701Z,12.70
2018-10-16T02:08:52.757Z,11.07
2018-10-16T02:11:26.843Z,11.87
2018-10-16T02:14:00.819Z,13.60
2018-10-16T02:16:35.000Z,11.67
2018-10-16T02:19:09.081Z,10.93
2018-10-16T02:21:43.063Z,14.80
2018-10-16T02:24:17.044Z,12.83
2018-10-16T02:26:51.030Z,11.17
2018-10-16T02:29:25.049Z,11.90
2018-10-16T02:31:59.076Z,12.33
2018-10-16T02:34:33.081Z,11.87
2018-10-16T02:37:07.887Z,11.37
2018-10-16T02:39:41.937Z,11.63
2018-10-16T02:42:15.972Z,13.97
2018-10-16T02:44:49.933Z,12.07
2018-10-16T02:47:23.926Z,11.50
2018-10-16T02:49:57.921Z,14.93
2018-10-16T02:52:31.967Z,11.73
2018-10-16T02:55:06.837Z,11.20
2018-10-16T02:57:40.949Z,11.67
2018-10-16T03:00:14.991Z,10.73
2018-10-16T03:02:48.988Z,12.80
2018-10-16T03:05:22.951Z,12.30
2018-10-16T03:07:56.927Z,11.20
2018-10-16T03:10:30.881Z,10.00
2018-10-16T03:13:05.014Z,11.43
2018-10-16T03:15:39.234Z,10.60
2018-10-16T03:18:13.261Z,12.30
2018-10-16T03:20:47.160Z,12.17
2018-10-16T03:23:21.169Z,11.23
2018-10-16T03:25:55.149Z,11.60
2018-10-16T03:28:29.235Z,13.33
2018-10-16T03:31:03.287Z,10.70
2018-10-16T03:33:37.278Z,11.23
2018-10-16T03:36:11.341Z,10.70
2018-10-16T03:38:45.344Z,11.27
2018-10-16T03:41:19.356Z,12.17
2018-10-16T03:43:58.414Z,14.00
2018-10-16T03:46:32.379Z,12.07
2018-10-16T03:49:07.069Z,11.77
2018-10-16T03:51:41.833Z,11.33
2018-10-16T03:54:15.798Z,11.70
2018-10-16T03:56:49.780Z,12.33
2018-10-16T03:59:23.790Z,13.60
2018-10-16T04:01:57.778Z,11.53
2018-10-16T04:04:31.849Z,11.50
2018-10-16T04:07:06.043Z,11.87
2018-10-16T04:09:40.232Z,11.20
2018-10-16T04:12:14.185Z,11.80
2018-10-16T04:14:48.154Z,11.23
2018-10-16T04:17:22.354Z,11.13
2018-10-16T04:19:56.320Z,11.37
2018-10-16T04:22:30.454Z,12.23
2018-10-16T04:25:04.615Z,11.70
2018-10-16T04:27:38.617Z,10.57
2018-10-16T04:30:12.758Z,11.50
2018-10-16T04:32:46.698Z,11.93
2018-10-16T04:35:20.693Z,12.07
2018-10-16T04:37:54.685Z,12.47
2018-10-16T04:40:28.781Z,11.00
2018-10-16T04:43:03.060Z,10.70
2018-10-16T04:45:37.147Z,11.50
2018-10-16T04:48:11.107Z,10.67
2018-10-16T04:50:45.141Z,10.97
2018-10-16T04:53:19.153Z,10.77
2018-10-16T04:55:53.188Z,10.90
2018-10-16T04:58:27.420Z,11.43
2018-10-16T05:01:01.514Z,10.57
2018-10-16T05:03:35.467Z,10.70
2018-10-16T05:06:09.604Z,11.30
2018-10-16T05:08:43.689Z,10.47
2018-10-16T05:11:17.674Z,10.97
2018-10-16T05:13:51.649Z,11.40
2018-10-16T05:16:25.700Z,12.27
2018-10-16T05:18:59.756Z,13.83
2018-10-16T05:21:33.788Z,12.27
2018-10-16T05:24:08.524Z,11.20
2018-10-16T05:26:42.644Z,10.97
2018-10-16T05:29:16.624Z,12.23
2018-10-16T05:31:50.697Z,11.60
2018-10-16T05:34:24.664Z,11.50
2018-10-16T05:36:58.696Z,12.10
2018-10-16T05:39:32.678Z,11.27
2018-10-16T05:42:06.790Z,10.73
2018-10-16T05:44:40.740Z,12.50
2018-10-16T05:47:14.823Z,11.37
2018-10-16T05:49:48.810Z,12.53
2018-10-16T05:52:22.966Z,11.67
2018-10-16T05:54:57.021Z,11.67
2018-10-16T05:57:30.999Z,10.87
2018-10-16T06:00:17.004Z,11.07
2018-10-16T06:02:51.024Z,11.73
2018-10-16T06:05:24.996Z,11.50
2018-10-16T06:07:59.108Z,11.57
2018-10-16T06:10:35.819Z,11.17
2018-10-16T06:13:09.891Z,11.30
2018-10-16T06:15:43.845Z,11.50
2018-10-16T06:18:17.801Z,12.53
2018-10-16T06:20:51.709Z,12.37
2018-10-16T06:23:25.818Z,10.73
2018-10-16T06:25:59.838Z,11.13
2018-10-16T06:28:33.939Z,11.13
2018-10-16T06:31:08.004Z,11.57
2018-10-16T06:33:42.085Z,11.53
2018-10-16T06:36:16.055Z,11.47
2018-10-16T06:38:50.095Z,11.03
2018-10-16T06:41:25.360Z,10.80
2018-10-16T06:43:59.810Z,11.87
2018-10-16T06:46:34.269Z,11.30
2018-10-16T06:49:08.481Z,11.43
2018-10-16T06:51:42.460Z,10.77
2018-10-16T06:54:16.503Z,11.03
2018-10-16T06:56:50.520Z,11.07
2018-10-16T06:59:24.565Z,11.57
2018-10-16T07:01:58.557Z,11.77
2018-10-16T07:04:32.533Z,11.30
2018-10-16T07:07:07.606Z,11.90
2018-10-16T07:09:41.646Z,11.47
2018-10-16T07:12:15.682Z,11.13
2018-10-16T07:14:49.667Z,11.73
2018-10-16T07:17:24.114Z,11.57
2018-10-16T07:19:58.287Z,10.90
2018-10-16T07:22:38.806Z,11.07
2018-10-16T07:25:13.140Z,10.93
2018-10-16T07:27:47.139Z,10.90
2018-10-16T07:30:21.242Z,11.27
2018-10-16T07:32:55.613Z,11.43
2018-10-16T07:35:29.622Z,11.57
2018-10-16T07:38:03.637Z,11.80
2018-10-16T07:40:37.669Z,11.37
2018-10-16T07:43:11.656Z,11.53
2018-10-16T07:45:45.632Z,11.90
2018-10-16T07:48:19.622Z,11.40
2018-10-16T07:50:55.183Z,12.30
2018-10-16T07:53:29.205Z,12.30
2018-10-16T07:56:03.201Z,12.43
2018-10-16T07:58:37.179Z,12.23
2018-10-16T08:01:11.272Z,12.37
2018-10-16T08:03:45.257Z,11.88
2018-10-16T08:06:19.266Z,12.10
2018-10-16T08:08:53.234Z,11.18
2018-10-16T08:11:27.345Z,11.30
2018-10-16T08:14:01.400Z,11.20
2018-10-16T08:16:35.464Z,11.30
2018-10-16T08:19:09.434Z,11.75
2018-10-16T08:21:44.006Z,12.25
2018-10-16T08:24:18.048Z,12.90
2018-10-16T08:26:52.232Z,12.15
2018-10-16T08:29:26.134Z,12.25
2018-10-16T08:32:00.251Z,12.05
2018-10-16T08:34:34.239Z,11.78
2018-10-16T08:37:11.170Z,11.60
2018-10-16T08:39:45.312Z,11.45
2018-10-16T08:42:34.033Z,12.00
2018-10-16T08:45:18.851Z,12.80
2018-10-16T08:48:03.812Z,12.73
2018-10-16T08:50:49.867Z,11.93
2018-10-16T08:53:23.855Z,11.65
2018-10-16T08:55:57.868Z,11.57
2018-10-16T08:58:32.934Z,11.28
2018-10-16T09:01:07.023Z,12.20
2018-10-16T09:03:41.137Z,11.20
2018-10-16T09:06:15.187Z,11.30
2018-10-16T09:08:49.262Z,11.57
2018-10-16T09:11:23.236Z,11.08
2018-10-16T09:13:57.409Z,11.70
2018-10-16T09:16:31.387Z,11.85
2018-10-16T09:19:05.640Z,11.95
2018-10-16T09:21:39.610Z,13.60
2018-10-16T09:24:13.652Z,11.57
2018-10-16T09:26:47.661Z,13.80
2018-10-16T09:29:21.995Z,12.05
2018-10-16T09:31:56.044Z,11.93
2018-10-16T09:34:30.139Z,11.97
2018-10-16T09:37:04.144Z,11.35
2018-10-16T09:39:38.215Z,11.00
2018-10-16T09:42:12.181Z,10.58
2018-10-16T09:44:46.275Z,10.78
2018-10-16T09:47:20.210Z,9.70
2018-10-16T09:49:54.439Z,8.98
2018-10-16T09:52:28.626Z,10.78
2018-10-16T09:55:02.653Z,9.70
2018-10-16T09:57:36.646Z,9.68
2018-10-16T10:00:16.700Z,9.88
2018-10-16T10:02:50.708Z,9.98
2018-10-16T10:05:24.754Z,9.45
2018-10-16T10:07:58.917Z,9.00
2018-10-16T10:10:33.019Z,8.80
2018-10-16T10:13:07.260Z,8.53
2018-10-16T10:15:41.271Z,7.78
2018-10-16T10:18:15.254Z,7.62
2018-10-16T10:20:49.276Z,7.60
2018-10-16T10:23:23.308Z,7.35
2018-10-16T10:25:57.270Z,7.95
2018-10-16T10:28:31.219Z,7.60
2018-10-16T10:31:05.687Z,7.58
2018-10-16T10:33:39.646Z,7.20
2018-10-16T10:36:14.090Z,7.42
2018-10-16T10:38:48.107Z,7.70
2018-10-16T10:41:22.102Z,7.15
2018-10-16T10:43:56.070Z,7.83
2018-10-16T10:46:30.141Z,7.80
2018-10-16T10:49:04.104Z,7.08
2018-10-16T10:51:38.425Z,6.60
2018-10-16T10:54:12.209Z,6.67
2018-10-16T10:56:46.371Z,6.97
2018-10-16T10:59:20.299Z,7.22
2018-10-16T11:01:54.314Z,7.00
2018-10-16T11:04:28.242Z,7.00
2018-10-16T11:07:02.342Z,6.78
2018-10-16T11:09:36.284Z,6.58
2018-10-16T11:12:10.297Z,6.55
2018-10-16T11:14:44.275Z,6.80
2018-10-16T11:17:18.339Z,6.15
2018-10-16T11:19:52.313Z,5.97
2018-10-16T11:22:26.355Z,5.87
2018-10-16T11:25:00.337Z,6.58
2018-10-16T11:27:34.689Z,6.62
2018-10-16T11:30:11.726Z,7.62
2018-10-16T11:32:45.723Z,6.33
2018-10-16T11:35:19.676Z,5.97
2018-10-16T11:37:53.784Z,5.60
2018-10-16T11:40:27.736Z,5.70
2018-10-16T11:43:01.721Z,6.20
2018-10-16T11:45:35.797Z,6.08
2018-10-16T11:48:09.852Z,5.67
2018-10-16T11:50:43.840Z,5.83
2018-10-16T11:53:17.843Z,6.12
2018-10-16T11:55:51.866Z,6.05
2018-10-16T11:58:25.942Z,6.25
2018-10-16T12:00:59.985Z,6.35
2018-10-16T12:03:34.048Z,6.08
2018-10-16T12:06:08.261Z,6.50
2018-10-16T12:08:42.294Z,5.78
2018-10-16T12:11:16.280Z,5.87
2018-10-16T12:13:50.212Z,5.90
2018-10-16T12:16:27.524Z,5.92
2018-10-16T12:19:06.492Z,6.47
2018-10-16T12:21:40.462Z,6.25
2018-10-16T12:24:14.519Z,6.28
2018-10-16T12:26:48.540Z,5.97
2018-10-16T12:29:22.541Z,5.85
2018-10-16T12:31:56.500Z,5.70
2018-10-16T12:34:30.494Z,6.35
2018-10-16T12:37:04.548Z,6.53
2018-10-16T12:39:38.657Z,6.17
2018-10-16T12:42:12.779Z,6.33
2018-10-16T12:44:46.829Z,6.30
2018-10-16T12:47:20.788Z,5.90
2018-10-16T12:49:54.877Z,5.95
2018-10-16T12:52:28.863Z,6.70
2018-10-16T12:55:02.879Z,6.00
2018-10-16T12:57:36.928Z,6.45
2018-10-16T13:00:11.087Z,6.00
2018-10-16T13:02:45.080Z,5.83
2018-10-16T13:05:19.087Z,5.85
2018-10-16T13:07:53.168Z,5.53
2018-10-16T13:10:27.185Z,5.72
2018-10-16T13:13:01.175Z,5.85
2018-10-16T13:15:35.286Z,5.65
2018-10-16T13:18:09.281Z,6.10
2018-10-16T13:20:43.339Z,6.22
2018-10-16T13:23:17.412Z,5.25
2018-10-16T13:25:51.480Z,5.60
2018-10-16T13:28:25.453Z,6.00
2018-10-16T13:30:59.455Z,5.50
2018-10-16T13:33:33.387Z,5.65
2018-10-16T13:36:07.758Z,5.15
2018-10-16T13:38:41.751Z,5.62
2018-10-16T13:41:15.813Z,6.33
2018-10-16T13:43:49.777Z,5.45
2018-10-16T13:46:23.756Z,5.50
2018-10-16T13:48:57.693Z,5.22
2018-10-16T13:51:31.703Z,4.90
2018-10-16T13:54:06.563Z,5.40
2018-10-16T13:56:40.573Z,5.30
2018-10-16T13:59:14.625Z,4.92
2018-10-16T14:01:48.819Z,5.42
2018-10-16T14:04:22.797Z,4.60
2018-10-16T14:06:56.890Z,5.33
2018-10-16T14:09:30.875Z,5.60
2018-10-16T14:12:04.889Z,4.70
2018-10-16T14:14:38.935Z,5.10
2018-10-16T14:17:13.067Z,4.70
2018-10-16T14:19:47.132Z,4.78
2018-10-16T14:22:21.170Z,5.30
2018-10-16T14:24:55.132Z,5.25
2018-10-16T14:27:29.240Z,5.20
2018-10-16T14:30:03.223Z,5.95
2018-10-16T14:32:37.280Z,4.90
2018-10-16T14:35:12.010Z,5.60
2018-10-16T14:37:45.999Z,5.70
2018-10-16T14:40:20.079Z,5.75
2018-10-16T14:42:54.050Z,5.12
2018-10-16T14:45:27.999Z,5.65
2018-10-16T14:48:02.160Z,5.15
2018-10-16T14:50:36.099Z,5.80
2018-10-16T14:53:10.133Z,5.40
2018-10-16T14:55:44.100Z,8.33
2018-10-16T14:58:18.138Z,7.50
2018-10-16T15:00:52.263Z,7.58
2018-10-16T15:03:26.305Z,5.80
2018-10-16T15:06:00.387Z,6.60
2018-10-16T15:08:34.411Z,5.78
2018-10-16T15:11:08.847Z,5.97
2018-10-16T15:13:42.932Z,5.50
2018-10-16T15:16:17.178Z,5.15
2018-10-16T15:18:51.202Z,5.60
2018-10-16T15:21:26.145Z,5.47
2018-10-16T15:24:01.424Z,5.85
2018-10-16T15:26:36.995Z,5.80
2018-10-16T15:29:11.237Z,5.35
2018-10-16T15:31:46.831Z,5.72
2018-10-16T15:34:20.892Z,5.37
2018-10-16T15:36:54.866Z,5.58
2018-10-16T15:39:28.950Z,5.55
2018-10-16T15:42:03.095Z,5.35
2018-10-16T15:44:37.171Z,5.65
2018-10-16T15:47:11.166Z,6.05
2018-10-16T15:49:45.195Z,5.97
2018-10-16T15:52:19.172Z,5.55
2018-10-16T15:54:53.217Z,6.03
2018-10-16T15:57:27.234Z,6.05
2018-10-16T16:00:01.295Z,5.67
2018-10-16T16:02:35.501Z,5.42
2018-10-16T16:05:09.586Z,6.30
2018-10-16T16:07:43.588Z,6.53
2018-10-16T16:10:17.843Z,6.55
2018-10-16T16:12:51.961Z,6.42
2018-10-16T16:15:25.970Z,6.40
2018-10-16T16:18:00.082Z,6.35
2018-10-16T16:20:34.035Z,6.10
2018-10-16T16:23:08.080Z,6.62
2018-10-16T16:25:42.113Z,7.20
2018-10-16T16:28:16.256Z,7.20
2018-10-16T16:30:50.190Z,7.37
2018-10-16T16:33:24.221Z,6.80
2018-10-16T16:35:58.275Z,7.42
2018-10-16T16:38:32.340Z,6.50
2018-10-16T16:41:06.478Z,7.00
2018-10-16T16:43:40.579Z,7.20
2018-10-16T16:46:14.846Z,7.42
2018-10-16T16:48:48.876Z,7.65
2018-10-16T16:51:23.004Z,6.85
2018-10-16T16:53:56.909Z,7.85
2018-10-16T16:56:30.971Z,7.28
2018-10-16T16:59:05.030Z,7.15
2018-10-16T17:01:39.184Z,7.30
2018-10-16T17:04:13.189Z,7.12
2018-10-16T17:06:47.269Z,7.83
2018-10-16T17:09:25.826Z,7.75
2018-10-16T17:12:00.091Z,8.15
2018-10-16T17:14:34.115Z,8.18
2018-10-16T17:17:08.168Z,8.40
2018-10-16T17:19:42.202Z,7.22
2018-10-16T17:22:16.259Z,7.62
2018-10-16T17:24:50.291Z,7.97
2018-10-16T17:27:24.846Z,8.23
2018-10-16T17:29:58.907Z,8.20
2018-10-16T17:32:32.914Z,8.75
2018-10-16T17:35:08.063Z,7.00
2018-10-16T17:37:42.543Z,7.60
2018-10-16T17:40:17.546Z,7.90
2018-10-16T17:42:51.607Z,7.65
2018-10-16T17:45:25.609Z,8.05
2018-10-16T17:47:59.771Z,9.15
2018-10-16T17:50:33.823Z,8.65
2018-10-16T17:53:07.840Z,8.58
2018-10-16T17:55:41.946Z,7.87
2018-10-16T17:58:16.056Z,8.40
2018-10-16T18:00:50.668Z,8.03
2018-10-16T18:03:41.560Z,8.60
2018-10-16T18:06:17.225Z,7.85
2018-10-16T18:08:54.163Z,8.43
2018-10-16T18:11:28.254Z,8.83
2018-10-16T18:14:02.243Z,9.20
2018-10-16T18:16:37.810Z,8.33
2018-10-16T18:19:13.065Z,7.85
2018-10-16T18:21:47.115Z,8.50
2018-10-16T18:24:21.104Z,8.45
2018-10-16T18:26:55.187Z,8.50
2018-10-16T18:29:29.291Z,8.38
2018-10-16T18:32:03.237Z,8.13
2018-10-16T18:34:37.248Z,9.10
2018-10-16T18:37:11.331Z,9.25
2018-10-16T18:39:45.639Z,9.50
2018-10-16T18:42:19.583Z,8.95
2018-10-16T18:44:53.736Z,8.80
2018-10-16T18:47:27.854Z,8.80
2018-10-16T18:50:01.906Z,9.18
2018-10-16T18:52:35.876Z,9.00
2018-10-16T18:55:12.647Z,9.93
2018-10-16T18:57:46.654Z,9.55
2018-10-16T19:00:21.024Z,9.80
2018-10-16T19:02:55.043Z,10.28
2018-10-16T19:05:29.019Z,11.18
2018-10-16T19:08:03.177Z,10.60
2018-10-16T19:10:37.174Z,9.15
2018-10-16T19:13:11.171Z,9.15
2018-10-16T19:15:45.257Z,8.28
2018-10-16T19:18:19.380Z,8.38
2018-10-16T19:20:53.541Z,8.83
2018-10-16T19:23:27.505Z,8.68
2018-10-16T19:26:01.570Z,8.80
2018-10-16T19:28:35.528Z,9.53
2018-10-16T19:31:09.568Z,9.15
2018-10-16T19:33:43.566Z,9.23
2018-10-16T19:36:17.638Z,8.35
2018-10-16T19:38:51.575Z,9.08
2018-10-16T19:41:25.659Z,8.88
2018-10-16T19:43:59.643Z,8.73
2018-10-16T19:46:33.727Z,8.40
2018-10-16T19:49:07.772Z,8.95
2018-10-16T19:51:41.905Z,9.20
2018-10-16T19:54:15.861Z,8.28
2018-10-16T19:56:49.955Z,8.68
2018-10-16T19:59:23.886Z,8.75
2018-10-16T20:01:58.017Z,7.80
2018-10-16T20:04:32.020Z,9.43
2018-10-16T20:07:06.882Z,9.33
2018-10-16T20:09:40.840Z,9.15
2018-10-16T20:12:14.852Z,9.40
2018-10-16T20:14:48.960Z,9.18
2018-10-16T20:17:22.961Z,9.28
2018-10-16T20:19:57.764Z,8.95
2018-10-16T20:22:31.805Z,9.78
2018-10-16T20:25:06.312Z,9.48
2018-10-16T20:27:40.472Z,9.53
2018-10-16T20:30:15.014Z,10.03
2018-10-16T20:32:49.026Z,10.25
2018-10-16T20:35:23.267Z,10.05
2018-10-16T20:37:57.267Z,10.55
2018-10-16T20:40:31.238Z,10.10
2018-10-16T20:43:05.505Z,10.08
2018-10-16T20:45:39.481Z,9.55
2018-10-16T20:48:13.578Z,11.10
2018-10-16T20:50:47.567Z,10.82
2018-10-16T20:53:21.685Z,9.88
2018-10-16T20:55:57.573Z,11.55
2018-10-16T20:58:32.079Z,11.55
2018-10-16T21:01:06.455Z,10.08
2018-10-16T21:03:40.541Z,10.03
2018-10-16T21:06:14.679Z,10.18
2018-10-16T21:08:48.700Z,9.90
2018-10-16T21:11:22.799Z,10.38
2018-10-16T21:13:56.785Z,10.80
2018-10-16T21:16:30.839Z,11.48
2018-10-16T21:19:04.996Z,11.55
2018-10-16T21:21:38.882Z,13.30
2018-10-16T21:24:12.929Z,10.78
2018-10-16T21:26:56.642Z,12.07
2018-10-16T21:29:30.815Z,12.70
2018-10-16T21:32:05.391Z,13.18
2018-10-16T21:34:39.504Z,11.85
2018-10-16T21:37:13.521Z,10.85
2018-10-16T21:39:47.565Z,10.40
2018-10-16T21:42:21.559Z,12.37
2018-10-16T21:44:55.556Z,11.50
2018-10-16T21:47:29.574Z,12.15
2018-10-16T21:50:03.667Z,12.23
2018-10-16T21:52:37.638Z,11.33
2018-10-16T21:55:11.730Z,11.22
2018-10-16T21:57:45.656Z,11.08
2018-10-16T22:00:24.934Z,11.60
2018-10-16T22:02:59.251Z,10.65
2018-10-16T22:05:33.302Z,12.15
2018-10-16T22:08:07.530Z,12.10
2018-10-16T22:10:41.558Z,11.83
2018-10-16T22:13:15.626Z,13.75
2018-10-16T22:15:49.576Z,11.68
2018-10-16T22:18:23.555Z,12.05
2018-10-16T22:20:57.708Z,12.68
2018-10-16T22:23:31.790Z,11.65
2018-10-16T22:26:08.432Z,11.03
2018-10-16T22:28:42.420Z,11.73
2018-10-16T22:31:16.625Z,11.35
2018-10-16T22:33:50.529Z,12.45
2018-10-16T22:36:25.001Z,12.07
2018-10-16T22:38:59.157Z,12.68
2018-10-16T22:41:33.307Z,11.45
2018-10-16T22:44:08.342Z,11.35
2018-10-16T22:46:42.482Z,10.65
2018-10-16T22:49:16.594Z,13.58
2018-10-16T22:51:50.701Z,11.18
2018-10-16T22:54:24.709Z,13.00
2018-10-16T22:56:58.759Z,12.47
2018-10-16T22:59:32.730Z,11.97
2018-10-16T23:02:07.178Z,11.35
2018-10-16T23:04:41.207Z,10.53
2018-10-16T23:07:15.343Z,12.50
2018-10-16T23:09:49.387Z,11.00
2018-10-16T23:12:23.408Z,11.08
2018-10-16T23:14:57.345Z,12.03
2018-10-16T23:17:31.523Z,13.30
2018-10-16T23:20:06.400Z,11.83
2018-10-16T23:22:40.721Z,11.30
2018-10-16T23:25:14.725Z,11.43
2018-10-16T23:27:48.656Z,12.37
2018-10-16T23:30:22.717Z,12.58
2018-10-16T23:32:56.699Z,12.40
2018-10-16T23:35:30.710Z,12.28
2018-10-16T23:38:04.797Z,11.80
2018-10-16T23:40:38.739Z,11.75
2018-10-16T23:43:12.911Z,12.85
2018-10-16T23:45:46.889Z,11.12
2018-10-16T23:48:20.832Z,11.63
2018-10-16T23:50:54.788Z,11.30
2018-10-16T23:53:28.785Z,12.30
2018-10-16T23:56:02.779Z,12.23
2018-10-16T23:58:36.764Z,12.03
